Station: Ngayawili (Elcho Island)  

  Atmospheric Gas Attenuation - ITU Rec 676-11   ----------------- dB/100km -----------------
Date Time Temp RH % AH g/m3 Dew Point Wind Direction Speed kph Gust kph Barometer mB Rainfall Since 9am 24GHz 47GHz 76GHz 122GHz 134GHz 241GHz
04/05 10:30 29.3 74 21.61 24.2 17 24 1012.4 0 46.0 42.8 84.9 224.8 251.3 873.4
04/05 10:20 29 75 21.55 24.1 17 22 1012.5 0 45.9 42.9 85.0 224.9 251.4 873.7
04/05 10:10 28.8 76 21.6 24.1 19 24 1012.4 0 46.0 43.1 85.4 226.1 252.8 878.7
04/05 10:00 29.1 78 22.53 24.9 13 22 1012.3 0 48.0 44.7 89.5 237.1 266.3 925.8
04/05 09:50 28.6 83 23.33 25.4 13 17 1012.2 0 49.7 46.6 94.1 249.2 281.0 976.7
04/05 09:40 28.1 83 22.7 24.9 19 24 1012.2 0 48.5 45.6 91.6 242.5 272.7 947.7
04/05 09:30 28 83 22.57 24.8 19 28 1012.1 0 48.2 45.4 91.0 241.1 270.9 941.6
04/05 09:20 28.3 82 22.67 24.9 22 24 1012.1 0 48.4 45.4 91.2 241.4 271.4 943.4
04/05 09:10 28 84 22.85 25 17 20 1012 0 48.8 45.9 92.4 244.8 275.4 957.2
04/05 09:00 27.5 85 22.49 24.7 17 28 1012 0 48.1 45.5 91.3 241.6 271.5 943.3
04/05 08:50 27.6 87 23.15 25.2 13 15 1012 0 49.5 46.8 94.4 250.1 281.9 979.4
04/05 08:40 27.3 89 23.29 25.3 13 15 1011.9 0 49.8 47.2 95.5 253.0 285.3 991.4
04/05 08:30 26.9 90 23.04 25.1 15 22 1011.8 0 49.3 46.9 94.8 250.9 282.7 982.2
04/05 08:20 26.8 93 23.67 25.6 17 20 1011.7 0 50.7 48.3 98.1 259.8 293.6 1020.0
04/05 08:10 26.7 96 24.3 26 15 17 1011.6 0 52.1 49.6 101.5 268.9 304.7 1058.4
04/05 08:00 26.2 98 24.13 25.9 9 15 1011.5 0 51.8 49.6 101.3 268.3 303.8 1055.4
04/05 07:50 25.9 100 24.21 25.9 9 11 1011.4 0 52.0 49.9 102.1 270.5 306.4 1064.4
04/05 07:40 25.4 100 23.54 25.4 6 7 1011.3 0 50.6 48.8 99.3 262.9 297.0 1031.5
04/05 07:30 24.6 100 22.51 24.6 0 0 1011.1 0 48.5 47.1 94.9 251.3 282.6 981.5
04/05 07:20 23.7 100 21.39 23.7 0 0 1011 0 46.2 45.3 90.3 239.0 267.1 927.7
04/05 07:10 23.6 100 21.27 23.6 0 0 1011 0 46.0 45.1 89.8 237.7 265.5 922.0
04/05 07:00 23.8 100 21.51 23.8 0 0 1010.9 0 46.5 45.5 90.8 240.3 268.7 933.3
04/05 06:50 23 100 20.55 23 0 0 1010.8 0 44.5 44.0 86.8 229.8 255.6 887.7
04/05 06:40 23.2 100 20.79 23.2 0 0 1010.7 0 45.0 44.4 87.8 232.4 258.9 899.0
04/05 06:30 23.1 100 20.67 23.1 0 0 1010.6 0 44.8 44.2 87.3 231.0 257.2 893.3
04/05 06:20 23.5 100 21.15 23.5 0 0 1010.5 0 45.7 44.9 89.3 236.3 263.8 916.0
04/05 06:10 23.7 100 21.39 23.7 4 6 1010.5 0 46.2 45.3 90.2 238.9 267.0 927.4
04/05 06:00 23.4 100 21.03 23.4 7 7 1010.4 0 45.5 44.7 88.8 234.9 262.1 910.2
04/05 05:50 23.5 100 21.15 23.5 7 7 1010.4 0 45.7 44.9 89.2 236.2 263.7 915.9
04/05 05:40 23.6 99 21.05 23.4 6 6 1010.5 0 45.5 44.7 88.6 234.6 261.7 909.0
04/05 05:30 23.7 99 21.17 23.5 4 6 1010.4 0 45.8 44.9 89.1 235.9 263.4 914.6
04/05 05:20 23.7 99 21.17 23.5 6 6 1010.4 0 45.8 44.9 89.1 235.9 263.4 914.6
04/05 05:10 24.3 100 22.13 24.3 7 7 1010.5 0 47.8 46.5 93.3 247.0 277.2 962.8
04/05 05:00 24.1 99 21.66 23.9 2 9 1010.4 0 46.8 45.6 91.1 241.2 270.1 938.0
04/05 04:50 23.7 99 21.17 23.5 0 0 1010.4 0 45.8 44.9 89.1 235.9 263.4 914.6
04/05 04:40 24 99 21.54 23.8 0 0 1010.4 0 46.5 45.4 90.6 239.9 268.4 932.3
04/05 04:30 24 98 21.32 23.7 0 0 1010.4 0 46.1 45.0 89.5 236.9 264.8 919.6
04/05 04:20 24.3 99 21.91 24.1 0 0 1010.3 0 47.3 46.0 92.2 244.0 273.5 949.9
04/05 04:10 24.3 98 21.69 24 0 0 1010.2 0 46.8 45.6 91.0 241.0 269.8 937.0
04/05 04:00 24.5 98 21.93 24.2 0 6 1010.2 0 47.3 46.0 92.0 243.6 273.1 948.4
04/05 03:50 24.7 97 21.95 24.2 0 0 1010.2 0 47.3 45.9 91.9 243.2 272.6 947.0
04/05 03:40 24.7 97 21.95 24.2 6 7 1010.1 0 47.3 45.9 91.8 243.2 272.6 946.9
04/05 03:30 24.7 97 21.95 24.2 7 11 1010.1 0 47.3 45.9 91.8 243.2 272.6 946.9
04/05 03:20 24.8 97 22.08 24.3 7 9 1010.2 0 47.6 46.1 92.4 244.6 274.4 953.2
04/05 03:10 24.7 97 21.95 24.2 7 9 1010.2 0 47.3 45.9 91.9 243.2 272.6 947.0
04/05 03:00 24.8 97 22.08 24.3 9 11 1010.3 0 47.6 46.1 92.4 244.6 274.5 953.3
04/05 02:50 24.8 97 22.08 24.3 7 9 1010.2 0 47.6 46.1 92.4 244.6 274.4 953.2
04/05 02:40 24.8 97 22.08 24.3 9 11 1010.3 0 47.6 46.1 92.4 244.6 274.5 953.3
04/05 02:30 24.7 97 21.95 24.2 9 11 1010.4 0 47.3 45.9 91.9 243.2 272.7 947.1
04/05 02:20 24.5 97 21.71 24 9 11 1010.6 0 46.8 45.5 90.9 240.7 269.5 935.9
04/05 02:10 24.6 96 21.61 23.9 9 9 1010.7 0 46.6 45.3 90.3 239.0 267.4 929.0
04/05 02:00 24.7 96 21.73 24 7 9 1010.8 0 46.8 45.5 90.8 240.3 269.1 934.7
04/05 01:50 24.7 96 21.73 24 7 9 1010.7 0 46.8 45.5 90.8 240.3 269.1 934.6
04/05 01:40 24.7 96 21.73 24 9 9 1010.8 0 46.8 45.5 90.8 240.3 269.1 934.7
04/05 01:30 24.8 95 21.62 23.9 9 11 1011 0 46.6 45.2 90.1 238.5 266.9 927.2
04/05 01:20 24.8 95 21.62 23.9 9 9 1011.1 0 46.6 45.2 90.1 238.6 267.0 927.3
04/05 01:10 24.9 94 21.52 23.9 9 9 1011.2 0 46.4 44.9 89.5 236.9 265.0 920.4
04/05 01:00 24.9 93 21.29 23.7 9 11 1011.3 0 45.9 44.5 88.3 233.9 261.2 907.3
04/05 00:50 25.1 92 21.3 23.7 9 9 1011.4 0 45.9 44.4 88.2 233.4 260.7 905.5
04/05 00:40 25.2 91 21.18 23.6 9 9 1011.6 0 45.6 44.1 87.5 231.5 258.4 897.6
04/05 00:30 25.1 90 20.83 23.3 9 13 1011.6 0 44.9 43.5 85.8 227.2 253.1 879.1
04/05 00:20 25.3 90 21.07 23.5 9 11 1011.7 0 45.3 43.8 86.8 229.8 256.3 890.3
04/05 00:10 25.3 89 20.84 23.4 9 11 1011.9 0 44.9 43.4 85.7 226.8 252.6 877.5
04/05 00:00 25.4 90 21.19 23.6 9 11 1011.9 0 45.6 44.0 87.3 231.1 257.9 896.0
03/05 23:50 25.5 88 20.83 23.4 9 11 1011.9 0 44.8 43.3 85.4 226.0 251.8 874.6
03/05 23:40 25.6 88 20.95 23.5 9 11 1011.9 0 45.1 43.5 85.9 227.3 253.4 880.2
03/05 23:30 25.6 88 20.95 23.5 9 13 1012 0 45.1 43.5 85.9 227.3 253.4 880.2
03/05 23:20 25.6 88 20.95 23.5 9 11 1012 0 45.1 43.5 85.9 227.3 253.4 880.2
03/05 23:10 25.7 87 20.83 23.4 9 11 1012 0 44.8 43.2 85.2 225.4 251.1 872.4
03/05 23:00 25.7 86 20.59 23.2 9 13 1012.1 0 44.3 42.7 84.0 222.3 247.3 859.1
03/05 22:50 25.7 86 20.59 23.2 9 11 1012.1 0 44.3 42.7 84.0 222.3 247.3 859.1
03/05 22:40 25.7 86 20.59 23.2 11 13 1012.1 0 44.3 42.7 84.0 222.3 247.3 859.1
03/05 22:30 25.8 85 20.46 23.1 9 11 1012.2 0 44.0 42.4 83.3 220.4 244.9 850.9
03/05 22:20 25.8 84 20.22 22.9 9 11 1012.2 0 43.5 41.9 82.1 217.3 241.1 837.7
03/05 22:10 25.8 85 20.46 23.1 9 11 1012.3 0 44.0 42.4 83.3 220.4 244.9 850.9
03/05 22:00 25.8 85 20.46 23.1 9 13 1012.3 0 44.0 42.4 83.3 220.4 244.9 850.9
03/05 21:50 25.8 86 20.7 23.3 9 11 1012.4 0 44.5 42.9 84.5 223.5 248.8 864.2
03/05 21:40 26 85 20.69 23.3 7 9 1012.3 0 44.4 42.8 84.2 222.8 247.9 861.3
03/05 21:30 26.2 82 20.19 22.9 9 11 1012.3 0 43.4 41.7 81.5 215.8 239.4 831.7
03/05 21:20 26 84 20.45 23.1 9 9 1012.2 0 43.9 42.3 83.0 219.7 244.1 848.1
03/05 21:10 25.9 85 20.58 23.2 9 9 1012.3 0 44.2 42.6 83.7 221.7 246.5 856.4
03/05 21:00 26.1 83 20.32 23 7 11 1012.1 0 43.7 42.0 82.3 217.7 241.7 839.8
03/05 20:50 26 84 20.45 23.1 9 9 1011.9 0 43.9 42.3 83.0 219.6 244.0 847.9
03/05 20:40 26 86 20.94 23.5 7 7 1011.8 0 45.0 43.2 85.4 225.9 251.8 874.8
03/05 20:30 26.1 84 20.56 23.2 7 9 1011.6 0 44.2 42.4 83.4 220.7 245.4 852.6
03/05 20:20 26 85 20.69 23.3 7 9 1011.4 0 44.5 42.7 84.1 222.6 247.8 860.8
03/05 20:10 25.9 87 21.06 23.6 7 9 1011.4 0 45.3 43.5 86.0 227.7 254.0 882.5
03/05 20:00 26.1 86 21.05 23.6 7 9 1011.3 0 45.2 43.4 85.8 227.0 253.1 879.5
03/05 19:50 26.3 84 20.8 23.4 7 9 1011.3 0 44.7 42.8 84.3 223.1 248.5 863.3
03/05 19:40 26.5 83 20.78 23.4 6 6 1011.3 0 44.6 42.6 84.0 222.3 247.5 860.0
03/05 19:30 26.7 83 21.01 23.6 7 7 1011.1 0 45.1 43.0 84.9 224.6 250.4 870.2
03/05 19:20 27 81 20.85 23.5 7 9 1011 0 44.7 42.5 83.7 221.7 246.9 857.9
03/05 19:10 27.2 79 20.56 23.2 7 7 1010.9 0 44.0 41.8 82.1 217.4 241.7 839.9
03/05 19:00 27.3 79 20.67 23.3 7 11 1010.9 0 44.3 42.0 82.5 218.5 243.1 844.7
03/05 18:50 27.5 79 20.9 23.5 9 13 1010.7 0 44.7 42.3 83.4 220.8 246.0 854.8
03/05 18:40 27.5 80 21.17 23.7 9 9 1010.6 0 45.3 42.8 84.7 224.2 250.2 869.4
03/05 18:30 27.5 82 21.7 24.1 9 11 1010.6 0 46.4 43.9 87.3 231.0 258.5 898.5
03/05 18:20 27.7 82 21.94 24.3 7 11 1010.5 0 46.9 44.2 88.2 233.5 261.6 909.3
03/05 18:10 27.8 83 22.33 24.6 9 11 1010.5 0 47.7 44.9 90.0 238.3 267.5 929.7
03/05 18:00 27.9 82 22.18 24.5 7 11 1010.5 0 47.4 44.6 89.1 236.0 264.8 920.1

Last Refresh: 04-May-2026 10:36:23

Bureau of Meteorology